sensor_id;sensor_type;location;lat;lon;timestamp;temperature;humidity
7566;DHT22;3824;48.010;7.832;2022-11-15T00:00:46;11.70;99.90
7566;DHT22;3824;48.010;7.832;2022-11-15T00:03:14;11.70;99.90
7566;DHT22;3824;48.010;7.832;2022-11-15T00:05:41;11.70;99.90
7566;DHT22;3824;48.010;7.832;2022-11-15T00:08:08;11.70;99.90
7566;DHT22;3824;48.010;7.832;2022-11-15T00:10:35;11.70;99.90
7566;DHT22;3824;48.010;7.832;2022-11-15T00:13:05;11.80;99.90
7566;DHT22;3824;48.010;7.832;2022-11-15T00:15:34;11.70;99.90
7566;DHT22;3824;48.010;7.832;2022-11-15T00:18:02;11.70;99.90
7566;DHT22;3824;48.010;7.832;2022-11-15T00:20:29;11.70;99.90
7566;DHT22;3824;48.010;7.832;2022-11-15T00:22:56;11.80;99.90
7566;DHT22;3824;48.010;7.832;2022-11-15T00:25:23;11.80;99.90
7566;DHT22;3824;48.010;7.832;2022-11-15T00:27:50;11.80;99.90
7566;DHT22;3824;48.010;7.832;2022-11-15T00:30:18;12.00;99.90
7566;DHT22;3824;48.010;7.832;2022-11-15T00:32:44;11.80;99.90
7566;DHT22;3824;48.010;7.832;2022-11-15T00:35:13;11.80;99.90
7566;DHT22;3824;48.010;7.832;2022-11-15T00:37:39;11.90;99.90
7566;DHT22;3824;48.010;7.832;2022-11-15T00:40:07;11.80;99.90
7566;DHT22;3824;48.010;7.832;2022-11-15T00:42:35;11.90;99.90
7566;DHT22;3824;48.010;7.832;2022-11-15T00:45:02;11.90;99.90
7566;DHT22;3824;48.010;7.832;2022-11-15T00:47:29;11.90;99.90
7566;DHT22;3824;48.010;7.832;2022-11-15T00:49:56;11.90;99.90
7566;DHT22;3824;48.010;7.832;2022-11-15T00:52:24;11.90;99.90
7566;DHT22;3824;48.010;7.832;2022-11-15T00:54:51;11.90;99.90
7566;DHT22;3824;48.010;7.832;2022-11-15T00:57:17;11.80;99.90
7566;DHT22;3824;48.010;7.832;2022-11-15T00:59:44;11.80;99.90
7566;DHT22;3824;48.010;7.832;2022-11-15T01:02:11;11.80;99.90
7566;DHT22;3824;48.010;7.832;2022-11-15T01:04:38;11.70;99.90
7566;DHT22;3824;48.010;7.832;2022-11-15T01:07:05;11.70;99.90
7566;DHT22;3824;48.010;7.832;2022-11-15T01:09:33;11.70;99.90
7566;DHT22;3824;48.010;7.832;2022-11-15T01:12:00;11.70;99.90
7566;DHT22;3824;48.010;7.832;2022-11-15T01:14:27;11.80;99.90
7566;DHT22;3824;48.010;7.832;2022-11-15T01:16:54;11.60;99.90
7566;DHT22;3824;48.010;7.832;2022-11-15T01:19:21;11.80;99.90
7566;DHT22;3824;48.010;7.832;2022-11-15T01:21:49;11.60;99.90
7566;DHT22;3824;48.010;7.832;2022-11-15T01:24:16;11.70;99.90
7566;DHT22;3824;48.010;7.832;2022-11-15T01:26:44;11.70;99.90
7566;DHT22;3824;48.010;7.832;2022-11-15T01:29:11;11.70;99.90
7566;DHT22;3824;48.010;7.832;2022-11-15T01:31:38;11.70;99.90
7566;DHT22;3824;48.010;7.832;2022-11-15T01:34:04;11.70;99.90
7566;DHT22;3824;48.010;7.832;2022-11-15T01:36:31;11.80;99.90
7566;DHT22;3824;48.010;7.832;2022-11-15T01:38:59;11.90;99.90
7566;DHT22;3824;48.010;7.832;2022-11-15T01:41:28;11.90;99.90
7566;DHT22;3824;48.010;7.832;2022-11-15T01:46:40;12.00;99.90
7566;DHT22;3824;48.010;7.832;2022-11-15T01:49:13;12.00;99.90
7566;DHT22;3824;48.010;7.832;2022-11-15T01:51:41;12.20;99.90
7566;DHT22;3824;48.010;7.832;2022-11-15T01:54:10;12.10;99.90
7566;DHT22;3824;48.010;7.832;2022-11-15T01:56:46;12.30;99.90
7566;DHT22;3824;48.010;7.832;2022-11-15T01:59:17;12.20;99.90
7566;DHT22;3824;48.010;7.832;2022-11-15T02:01:44;12.30;99.90
7566;DHT22;3824;48.010;7.832;2022-11-15T02:04:13;12.30;99.90
7566;DHT22;3824;48.010;7.832;2022-11-15T02:06:43;12.30;99.90
7566;DHT22;3824;48.010;7.832;2022-11-15T02:09:11;12.30;99.90
7566;DHT22;3824;48.010;7.832;2022-11-15T02:11:39;12.40;99.90
7566;DHT22;3824;48.010;7.832;2022-11-15T02:14:07;12.40;99.90
7566;DHT22;3824;48.010;7.832;2022-11-15T02:16:41;12.40;99.90
7566;DHT22;3824;48.010;7.832;2022-11-15T02:19:23;12.40;99.90
7566;DHT22;3824;48.010;7.832;2022-11-15T02:22:03;12.30;99.90
7566;DHT22;3824;48.010;7.832;2022-11-15T02:24:57;12.30;99.90
7566;DHT22;3824;48.010;7.832;2022-11-15T02:27:49;12.70;99.90
7566;DHT22;3824;48.010;7.832;2022-11-15T02:30:25;12.40;99.90
7566;DHT22;3824;48.010;7.832;2022-11-15T02:32:57;12.30;99.90
7566;DHT22;3824;48.010;7.832;2022-11-15T02:35:33;12.20;99.90
7566;DHT22;3824;48.010;7.832;2022-11-15T02:38:08;12.20;99.90
7566;DHT22;3824;48.010;7.832;2022-11-15T02:40:42;12.20;99.90
7566;DHT22;3824;48.010;7.832;2022-11-15T02:43:18;12.30;99.90
7566;DHT22;3824;48.010;7.832;2022-11-15T02:46:09;12.20;99.90
7566;DHT22;3824;48.010;7.832;2022-11-15T02:48:40;12.20;99.90
7566;DHT22;3824;48.010;7.832;2022-11-15T02:51:08;12.20;99.90
7566;DHT22;3824;48.010;7.832;2022-11-15T02:53:36;12.10;99.90
7566;DHT22;3824;48.010;7.832;2022-11-15T02:56:03;12.10;99.90
7566;DHT22;3824;48.010;7.832;2022-11-15T02:58:53;12.10;99.90
7566;DHT22;3824;48.010;7.832;2022-11-15T03:01:35;12.10;99.90
7566;DHT22;3824;48.010;7.832;2022-11-15T03:04:16;12.00;99.90
7566;DHT22;3824;48.010;7.832;2022-11-15T03:06:51;12.00;99.90
7566;DHT22;3824;48.010;7.832;2022-11-15T03:09:27;12.00;99.90
7566;DHT22;3824;48.010;7.832;2022-11-15T03:11:59;11.90;99.90
7566;DHT22;3824;48.010;7.832;2022-11-15T03:14:31;11.90;99.90
7566;DHT22;3824;48.010;7.832;2022-11-15T03:17:05;11.80;99.90
7566;DHT22;3824;48.010;7.832;2022-11-15T03:19:40;12.00;99.90
7566;DHT22;3824;48.010;7.832;2022-11-15T03:22:12;11.80;99.90
7566;DHT22;3824;48.010;7.832;2022-11-15T03:24:41;11.80;99.90
7566;DHT22;3824;48.010;7.832;2022-11-15T03:27:12;11.70;99.90
7566;DHT22;3824;48.010;7.832;2022-11-15T03:29:41;11.70;99.90
7566;DHT22;3824;48.010;7.832;2022-11-15T03:32:15;11.70;99.90
7566;DHT22;3824;48.010;7.832;2022-11-15T03:34:46;11.60;99.90
7566;DHT22;3824;48.010;7.832;2022-11-15T03:37:15;11.60;99.90
7566;DHT22;3824;48.010;7.832;2022-11-15T03:39:42;11.60;99.90
7566;DHT22;3824;48.010;7.832;2022-11-15T03:42:18;11.60;99.90
7566;DHT22;3824;48.010;7.832;2022-11-15T03:44:51;11.60;99.90
7566;DHT22;3824;48.010;7.832;2022-11-15T03:47:27;11.60;99.90
7566;DHT22;3824;48.010;7.832;2022-11-15T03:49:59;11.50;99.90
7566;DHT22;3824;48.010;7.832;2022-11-15T03:52:31;11.50;99.90
7566;DHT22;3824;48.010;7.832;2022-11-15T03:55:00;11.50;99.90
7566;DHT22;3824;48.010;7.832;2022-11-15T03:57:28;11.50;99.90
7566;DHT22;3824;48.010;7.832;2022-11-15T03:59:54;11.50;99.90
7566;DHT22;3824;48.010;7.832;2022-11-15T04:02:22;11.50;99.90
7566;DHT22;3824;48.010;7.832;2022-11-15T04:04:49;11.50;99.90
7566;DHT22;3824;48.010;7.832;2022-11-15T04:07:16;11.50;99.90
7566;DHT22;3824;48.010;7.832;2022-11-15T04:09:43;11.50;99.90
7566;DHT22;3824;48.010;7.832;2022-11-15T04:12:27;11.50;99.90
7566;DHT22;3824;48.010;7.832;2022-11-15T04:15:01;11.50;99.90
7566;DHT22;3824;48.010;7.832;2022-11-15T04:17:38;11.40;99.90
7566;DHT22;3824;48.010;7.832;2022-11-15T04:20:08;11.40;99.90
7566;DHT22;3824;48.010;7.832;2022-11-15T04:22:54;11.40;99.90
7566;DHT22;3824;48.010;7.832;2022-11-15T04:25:38;11.40;99.90
7566;DHT22;3824;48.010;7.832;2022-11-15T04:28:06;11.30;99.90
7566;DHT22;3824;48.010;7.832;2022-11-15T04:30:32;11.30;99.90
7566;DHT22;3824;48.010;7.832;2022-11-15T04:33:01;11.50;99.90
7566;DHT22;3824;48.010;7.832;2022-11-15T04:35:27;11.30;99.90
7566;DHT22;3824;48.010;7.832;2022-11-15T04:37:55;11.20;99.90
7566;DHT22;3824;48.010;7.832;2022-11-15T04:40:21;11.20;99.90
7566;DHT22;3824;48.010;7.832;2022-11-15T04:42:48;11.20;99.90
7566;DHT22;3824;48.010;7.832;2022-11-15T04:45:15;11.10;99.90
7566;DHT22;3824;48.010;7.832;2022-11-15T04:47:43;11.10;99.90
7566;DHT22;3824;48.010;7.832;2022-11-15T04:50:12;11.00;99.90
7566;DHT22;3824;48.010;7.832;2022-11-15T04:52:40;11.00;99.90
7566;DHT22;3824;48.010;7.832;2022-11-15T04:55:07;11.00;99.90
7566;DHT22;3824;48.010;7.832;2022-11-15T04:57:34;11.00;99.90
7566;DHT22;3824;48.010;7.832;2022-11-15T05:00:03;11.00;99.90
7566;DHT22;3824;48.010;7.832;2022-11-15T05:02:30;11.00;99.90
7566;DHT22;3824;48.010;7.832;2022-11-15T05:05:18;11.00;99.90
7566;DHT22;3824;48.010;7.832;2022-11-15T05:07:44;11.00;99.90
7566;DHT22;3824;48.010;7.832;2022-11-15T05:10:11;11.00;99.90
7566;DHT22;3824;48.010;7.832;2022-11-15T05:12:38;11.00;99.90
7566;DHT22;3824;48.010;7.832;2022-11-15T05:15:05;11.00;99.90
7566;DHT22;3824;48.010;7.832;2022-11-15T05:17:32;11.00;99.90
7566;DHT22;3824;48.010;7.832;2022-11-15T05:19:59;11.00;99.90
7566;DHT22;3824;48.010;7.832;2022-11-15T05:22:28;11.00;99.90
7566;DHT22;3824;48.010;7.832;2022-11-15T05:24:55;11.00;99.90
7566;DHT22;3824;48.010;7.832;2022-11-15T05:27:21;10.90;99.90
7566;DHT22;3824;48.010;7.832;2022-11-15T05:29:48;10.90;99.90
7566;DHT22;3824;48.010;7.832;2022-11-15T05:32:16;10.90;99.90
7566;DHT22;3824;48.010;7.832;2022-11-15T05:34:44;10.90;99.90
7566;DHT22;3824;48.010;7.832;2022-11-15T05:37:10;10.90;99.90
7566;DHT22;3824;48.010;7.832;2022-11-15T05:39:39;10.90;99.90
7566;DHT22;3824;48.010;7.832;2022-11-15T05:42:08;10.90;99.90
7566;DHT22;3824;48.010;7.832;2022-11-15T05:44:36;10.90;99.90
7566;DHT22;3824;48.010;7.832;2022-11-15T05:47:05;10.90;99.90
7566;DHT22;3824;48.010;7.832;2022-11-15T05:49:36;10.90;99.90
7566;DHT22;3824;48.010;7.832;2022-11-15T05:52:05;10.90;99.90
7566;DHT22;3824;48.010;7.832;2022-11-15T05:54:34;10.90;99.90
7566;DHT22;3824;48.010;7.832;2022-11-15T05:57:04;10.90;99.90
7566;DHT22;3824;48.010;7.832;2022-11-15T05:59:31;10.90;99.90
7566;DHT22;3824;48.010;7.832;2022-11-15T06:01:59;10.80;99.90
7566;DHT22;3824;48.010;7.832;2022-11-15T06:04:26;10.80;99.90
7566;DHT22;3824;48.010;7.832;2022-11-15T06:06:53;10.80;99.90
7566;DHT22;3824;48.010;7.832;2022-11-15T06:09:20;10.80;99.90
7566;DHT22;3824;48.010;7.832;2022-11-15T06:11:46;10.70;99.90
7566;DHT22;3824;48.010;7.832;2022-11-15T06:14:15;10.70;99.90
7566;DHT22;3824;48.010;7.832;2022-11-15T06:16:42;10.80;99.90
7566;DHT22;3824;48.010;7.832;2022-11-15T06:19:08;10.70;99.90
7566;DHT22;3824;48.010;7.832;2022-11-15T06:21:36;10.70;99.90
7566;DHT22;3824;48.010;7.832;2022-11-15T06:24:03;10.70;99.90
7566;DHT22;3824;48.010;7.832;2022-11-15T06:26:31;10.70;99.90
7566;DHT22;3824;48.010;7.832;2022-11-15T06:28:58;10.70;99.90
7566;DHT22;3824;48.010;7.832;2022-11-15T06:31:26;10.70;99.90
7566;DHT22;3824;48.010;7.832;2022-11-15T06:33:53;10.70;99.90
7566;DHT22;3824;48.010;7.832;2022-11-15T06:36:19;10.70;99.90
7566;DHT22;3824;48.010;7.832;2022-11-15T06:38:46;10.70;99.90
7566;DHT22;3824;48.010;7.832;2022-11-15T06:41:14;10.70;99.90
7566;DHT22;3824;48.010;7.832;2022-11-15T06:43:42;10.70;99.90
7566;DHT22;3824;48.010;7.832;2022-11-15T06:46:09;10.70;99.90
7566;DHT22;3824;48.010;7.832;2022-11-15T06:48:37;10.70;99.90
7566;DHT22;3824;48.010;7.832;2022-11-15T06:51:05;10.80;99.90
7566;DHT22;3824;48.010;7.832;2022-11-15T06:53:33;10.80;99.90
7566;DHT22;3824;48.010;7.832;2022-11-15T06:56:01;10.80;99.90
7566;DHT22;3824;48.010;7.832;2022-11-15T06:58:28;10.80;99.90
7566;DHT22;3824;48.010;7.832;2022-11-15T07:00:58;10.80;99.90
7566;DHT22;3824;48.010;7.832;2022-11-15T07:03:25;10.80;99.90
7566;DHT22;3824;48.010;7.832;2022-11-15T07:05:55;10.80;99.90
7566;DHT22;3824;48.010;7.832;2022-11-15T07:08:22;10.90;99.90
7566;DHT22;3824;48.010;7.832;2022-11-15T07:10:49;10.90;99.90
7566;DHT22;3824;48.010;7.832;2022-11-15T07:13:16;10.90;99.90
7566;DHT22;3824;48.010;7.832;2022-11-15T07:15:43;10.90;99.90
7566;DHT22;3824;48.010;7.832;2022-11-15T07:18:10;11.00;99.90
7566;DHT22;3824;48.010;7.832;2022-11-15T07:20:38;11.00;99.90
7566;DHT22;3824;48.010;7.832;2022-11-15T07:23:06;11.00;99.90
7566;DHT22;3824;48.010;7.832;2022-11-15T07:25:33;11.10;99.90
7566;DHT22;3824;48.010;7.832;2022-11-15T07:28:01;11.10;99.90
7566;DHT22;3824;48.010;7.832;2022-11-15T07:30:28;11.10;99.90
7566;DHT22;3824;48.010;7.832;2022-11-15T07:32:55;11.20;99.90
7566;DHT22;3824;48.010;7.832;2022-11-15T07:35:23;11.20;99.90
7566;DHT22;3824;48.010;7.832;2022-11-15T07:37:54;11.20;99.90
7566;DHT22;3824;48.010;7.832;2022-11-15T07:40:23;11.20;99.90
7566;DHT22;3824;48.010;7.832;2022-11-15T07:42:50;11.20;99.90
7566;DHT22;3824;48.010;7.832;2022-11-15T07:45:22;11.20;99.90
7566;DHT22;3824;48.010;7.832;2022-11-15T07:47:49;11.20;99.90
7566;DHT22;3824;48.010;7.832;2022-11-15T07:50:16;11.20;99.90
7566;DHT22;3824;48.010;7.832;2022-11-15T07:52:44;11.20;99.90
7566;DHT22;3824;48.010;7.832;2022-11-15T07:55:11;11.20;99.90
7566;DHT22;3824;48.010;7.832;2022-11-15T07:57:39;11.30;99.90
7566;DHT22;3824;48.010;7.832;2022-11-15T08:00:07;11.40;99.90
7566;DHT22;3824;48.010;7.832;2022-11-15T08:02:34;11.40;99.90
7566;DHT22;3824;48.010;7.832;2022-11-15T08:05:01;11.40;99.90
7566;DHT22;3824;48.010;7.832;2022-11-15T08:07:29;11.40;99.90
7566;DHT22;3824;48.010;7.832;2022-11-15T08:09:57;11.50;99.90
7566;DHT22;3824;48.010;7.832;2022-11-15T08:12:24;11.60;99.90
7566;DHT22;3824;48.010;7.832;2022-11-15T08:14:52;11.70;99.90
7566;DHT22;3824;48.010;7.832;2022-11-15T08:17:19;11.70;99.90
7566;DHT22;3824;48.010;7.832;2022-11-15T08:19:46;11.80;99.90
7566;DHT22;3824;48.010;7.832;2022-11-15T08:22:13;11.80;99.90
7566;DHT22;3824;48.010;7.832;2022-11-15T08:24:40;11.80;99.90
7566;DHT22;3824;48.010;7.832;2022-11-15T08:27:07;12.00;99.90
7566;DHT22;3824;48.010;7.832;2022-11-15T08:29:40;12.00;99.90
7566;DHT22;3824;48.010;7.832;2022-11-15T08:32:08;12.00;99.90
7566;DHT22;3824;48.010;7.832;2022-11-15T08:34:35;12.10;99.90
7566;DHT22;3824;48.010;7.832;2022-11-15T08:37:02;12.20;99.90
7566;DHT22;3824;48.010;7.832;2022-11-15T08:39:29;12.20;99.90
7566;DHT22;3824;48.010;7.832;2022-11-15T08:41:56;12.30;99.90
7566;DHT22;3824;48.010;7.832;2022-11-15T08:44:23;12.40;99.90
7566;DHT22;3824;48.010;7.832;2022-11-15T08:46:50;12.40;99.90
7566;DHT22;3824;48.010;7.832;2022-11-15T08:49:18;12.50;99.90
7566;DHT22;3824;48.010;7.832;2022-11-15T08:51:45;12.50;99.90
7566;DHT22;3824;48.010;7.832;2022-11-15T08:54:12;12.40;99.90
7566;DHT22;3824;48.010;7.832;2022-11-15T08:56:39;12.50;99.90
7566;DHT22;3824;48.010;7.832;2022-11-15T08:59:06;12.30;99.90
7566;DHT22;3824;48.010;7.832;2022-11-15T09:01:32;12.20;99.90
7566;DHT22;3824;48.010;7.832;2022-11-15T09:04:00;12.10;99.90
7566;DHT22;3824;48.010;7.832;2022-11-15T09:06:31;14.80;99.90
7566;DHT22;3824;48.010;7.832;2022-11-15T09:09:00;12.00;99.90
7566;DHT22;3824;48.010;7.832;2022-11-15T09:11:27;12.00;99.90
7566;DHT22;3824;48.010;7.832;2022-11-15T09:13:54;11.90;99.90
7566;DHT22;3824;48.010;7.832;2022-11-15T09:16:21;11.90;99.90
7566;DHT22;3824;48.010;7.832;2022-11-15T09:18:48;11.90;99.90
7566;DHT22;3824;48.010;7.832;2022-11-15T09:21:14;11.90;99.90
7566;DHT22;3824;48.010;7.832;2022-11-15T09:23:43;12.20;99.90
7566;DHT22;3824;48.010;7.832;2022-11-15T09:26:09;12.20;99.90
7566;DHT22;3824;48.010;7.832;2022-11-15T09:28:37;12.10;99.90
7566;DHT22;3824;48.010;7.832;2022-11-15T09:31:07;12.10;99.90
7566;DHT22;3824;48.010;7.832;2022-11-15T09:33:34;12.00;99.90
7566;DHT22;3824;48.010;7.832;2022-11-15T09:36:02;12.00;99.90
7566;DHT22;3824;48.010;7.832;2022-11-15T09:38:29;11.90;99.90
7566;DHT22;3824;48.010;7.832;2022-11-15T09:41:22;12.00;99.90
7566;DHT22;3824;48.010;7.832;2022-11-15T09:44:03;12.10;99.90
7566;DHT22;3824;48.010;7.832;2022-11-15T09:46:38;12.00;99.90
7566;DHT22;3824;48.010;7.832;2022-11-15T09:49:09;12.00;99.90
7566;DHT22;3824;48.010;7.832;2022-11-15T09:51:39;12.20;99.90
7566;DHT22;3824;48.010;7.832;2022-11-15T09:54:20;12.20;99.90
7566;DHT22;3824;48.010;7.832;2022-11-15T09:56:50;12.20;99.90
7566;DHT22;3824;48.010;7.832;2022-11-15T09:59:27;12.20;99.90
7566;DHT22;3824;48.010;7.832;2022-11-15T10:02:03;12.30;99.90
7566;DHT22;3824;48.010;7.832;2022-11-15T10:04:31;12.30;99.90
7566;DHT22;3824;48.010;7.832;2022-11-15T10:07:02;12.40;99.90
7566;DHT22;3824;48.010;7.832;2022-11-15T10:09:35;12.40;99.90
7566;DHT22;3824;48.010;7.832;2022-11-15T10:12:04;12.50;99.90
7566;DHT22;3824;48.010;7.832;2022-11-15T10:14:31;12.60;99.90
7566;DHT22;3824;48.010;7.832;2022-11-15T10:17:17;12.70;99.90
7566;DHT22;3824;48.010;7.832;2022-11-15T10:19:54;12.70;99.90
7566;DHT22;3824;48.010;7.832;2022-11-15T10:22:28;12.90;99.90
7566;DHT22;3824;48.010;7.832;2022-11-15T10:25:09;13.00;99.90
7566;DHT22;3824;48.010;7.832;2022-11-15T10:27:39;13.10;99.90
7566;DHT22;3824;48.010;7.832;2022-11-15T10:30:12;13.10;99.90
7566;DHT22;3824;48.010;7.832;2022-11-15T10:32:41;13.20;99.90
7566;DHT22;3824;48.010;7.832;2022-11-15T10:35:20;13.20;99.90
7566;DHT22;3824;48.010;7.832;2022-11-15T10:37:48;13.20;99.90
7566;DHT22;3824;48.010;7.832;2022-11-15T10:40:18;13.20;99.90
7566;DHT22;3824;48.010;7.832;2022-11-15T10:43:03;13.20;99.90
7566;DHT22;3824;48.010;7.832;2022-11-15T10:45:32;13.20;99.90
7566;DHT22;3824;48.010;7.832;2022-11-15T10:48:21;13.30;99.90
7566;DHT22;3824;48.010;7.832;2022-11-15T10:50:49;13.30;99.90
7566;DHT22;3824;48.010;7.832;2022-11-15T10:53:21;13.40;99.90
7566;DHT22;3824;48.010;7.832;2022-11-15T10:55:53;13.50;99.90
7566;DHT22;3824;48.010;7.832;2022-11-15T10:58:35;13.50;99.90
7566;DHT22;3824;48.010;7.832;2022-11-15T11:01:14;13.60;99.90
7566;DHT22;3824;48.010;7.832;2022-11-15T11:03:43;13.70;99.90
7566;DHT22;3824;48.010;7.832;2022-11-15T11:06:12;13.70;99.90
7566;DHT22;3824;48.010;7.832;2022-11-15T11:08:40;13.80;99.90
7566;DHT22;3824;48.010;7.832;2022-11-15T11:11:07;13.70;99.90
7566;DHT22;3824;48.010;7.832;2022-11-15T11:13:38;13.70;99.90
7566;DHT22;3824;48.010;7.832;2022-11-15T11:16:33;13.70;99.90
7566;DHT22;3824;48.010;7.832;2022-11-15T11:19:20;13.70;99.90
7566;DHT22;3824;48.010;7.832;2022-11-15T11:21:57;13.70;99.90
7566;DHT22;3824;48.010;7.832;2022-11-15T11:24:34;13.80;99.90
7566;DHT22;3824;48.010;7.832;2022-11-15T11:27:13;13.80;99.90
7566;DHT22;3824;48.010;7.832;2022-11-15T11:29:55;13.90;99.90
7566;DHT22;3824;48.010;7.832;2022-11-15T11:32:38;13.90;99.90
7566;DHT22;3824;48.010;7.832;2022-11-15T11:35:13;13.90;99.90
7566;DHT22;3824;48.010;7.832;2022-11-15T11:37:56;14.00;99.90
7566;DHT22;3824;48.010;7.832;2022-11-15T11:40:29;14.00;99.90
7566;DHT22;3824;48.010;7.832;2022-11-15T11:43:03;14.10;99.90
7566;DHT22;3824;48.010;7.832;2022-11-15T11:48:52;14.10;99.90
7566;DHT22;3824;48.010;7.832;2022-11-15T11:51:24;14.10;99.90
7566;DHT22;3824;48.010;7.832;2022-11-15T11:53:54;14.20;99.90
7566;DHT22;3824;48.010;7.832;2022-11-15T11:56:26;14.20;99.90
7566;DHT22;3824;48.010;7.832;2022-11-15T11:58:55;14.20;99.90
7566;DHT22;3824;48.010;7.832;2022-11-15T12:01:28;14.20;99.90
7566;DHT22;3824;48.010;7.832;2022-11-15T12:04:01;14.40;99.90
7566;DHT22;3824;48.010;7.832;2022-11-15T12:06:33;14.20;99.90
7566;DHT22;3824;48.010;7.832;2022-11-15T12:09:07;14.40;99.90
7566;DHT22;3824;48.010;7.832;2022-11-15T12:11:46;14.20;99.90
7566;DHT22;3824;48.010;7.832;2022-11-15T12:14:24;14.20;99.90
7566;DHT22;3824;48.010;7.832;2022-11-15T12:16:54;14.10;99.90
7566;DHT22;3824;48.010;7.832;2022-11-15T12:19:21;14.00;99.90
7566;DHT22;3824;48.010;7.832;2022-11-15T12:21:52;14.00;99.90
7566;DHT22;3824;48.010;7.832;2022-11-15T12:24:23;14.00;99.90
7566;DHT22;3824;48.010;7.832;2022-11-15T12:26:54;13.90;99.90
7566;DHT22;3824;48.010;7.832;2022-11-15T12:29:28;13.90;99.90
7566;DHT22;3824;48.010;7.832;2022-11-15T12:31:57;13.90;99.90
7566;DHT22;3824;48.010;7.832;2022-11-15T12:34:43;13.80;99.90
7566;DHT22;3824;48.010;7.832;2022-11-15T12:37:41;13.80;99.90
7566;DHT22;3824;48.010;7.832;2022-11-15T12:40:24;13.90;99.90
7566;DHT22;3824;48.010;7.832;2022-11-15T12:43:01;13.90;99.90
7566;DHT22;3824;48.010;7.832;2022-11-15T12:45:30;13.90;99.90
7566;DHT22;3824;48.010;7.832;2022-11-15T12:57:41;13.80;99.90
7566;DHT22;3824;48.010;7.832;2022-11-15T13:00:43;13.90;99.90
7566;DHT22;3824;48.010;7.832;2022-11-15T13:03:24;13.90;99.90
7566;DHT22;3824;48.010;7.832;2022-11-15T13:06:07;13.90;99.90
7566;DHT22;3824;48.010;7.832;2022-11-15T13:08:40;13.90;99.90
7566;DHT22;3824;48.010;7.832;2022-11-15T13:14:43;13.90;99.90
7566;DHT22;3824;48.010;7.832;2022-11-15T13:17:23;13.90;99.90
7566;DHT22;3824;48.010;7.832;2022-11-15T13:19:59;13.90;99.90
7566;DHT22;3824;48.010;7.832;2022-11-15T13:22:26;13.80;99.90
7566;DHT22;3824;48.010;7.832;2022-11-15T13:25:22;13.80;99.90
7566;DHT22;3824;48.010;7.832;2022-11-15T13:27:53;13.80;99.90
7566;DHT22;3824;48.010;7.832;2022-11-15T13:30:24;13.80;99.90
7566;DHT22;3824;48.010;7.832;2022-11-15T13:32:52;13.80;99.90
7566;DHT22;3824;48.010;7.832;2022-11-15T13:35:23;13.80;99.90
7566;DHT22;3824;48.010;7.832;2022-11-15T13:37:51;13.80;99.90
7566;DHT22;3824;48.010;7.832;2022-11-15T13:40:23;13.80;99.90
7566;DHT22;3824;48.010;7.832;2022-11-15T13:42:50;13.70;99.90
7566;DHT22;3824;48.010;7.832;2022-11-15T13:45:19;13.60;99.90
7566;DHT22;3824;48.010;7.832;2022-11-15T13:47:51;13.60;99.90
7566;DHT22;3824;48.010;7.832;2022-11-15T13:50:23;13.60;99.90
7566;DHT22;3824;48.010;7.832;2022-11-15T13:52:52;13.60;99.90
7566;DHT22;3824;48.010;7.832;2022-11-15T13:55:21;13.50;99.90
7566;DHT22;3824;48.010;7.832;2022-11-15T13:57:52;13.50;99.90
7566;DHT22;3824;48.010;7.832;2022-11-15T14:00:32;13.50;99.90
7566;DHT22;3824;48.010;7.832;2022-11-15T14:03:07;13.50;99.90
7566;DHT22;3824;48.010;7.832;2022-11-15T14:05:35;13.50;99.90
7566;DHT22;3824;48.010;7.832;2022-11-15T14:08:05;13.50;99.90
7566;DHT22;3824;48.010;7.832;2022-11-15T14:10:40;13.60;99.90
7566;DHT22;3824;48.010;7.832;2022-11-15T14:13:26;13.50;99.90
7566;DHT22;3824;48.010;7.832;2022-11-15T14:15:53;13.50;99.90
7566;DHT22;3824;48.010;7.832;2022-11-15T14:18:41;13.50;99.90
7566;DHT22;3824;48.010;7.832;2022-11-15T14:21:10;13.40;99.90
7566;DHT22;3824;48.010;7.832;2022-11-15T14:23:37;13.40;99.90
7566;DHT22;3824;48.010;7.832;2022-11-15T14:26:04;13.40;99.90
7566;DHT22;3824;48.010;7.832;2022-11-15T14:28:32;13.40;99.90
7566;DHT22;3824;48.010;7.832;2022-11-15T14:31:04;13.50;99.90
7566;DHT22;3824;48.010;7.832;2022-11-15T14:33:34;13.50;99.90
7566;DHT22;3824;48.010;7.832;2022-11-15T14:36:04;13.60;99.90
7566;DHT22;3824;48.010;7.832;2022-11-15T14:38:33;13.60;99.90
7566;DHT22;3824;48.010;7.832;2022-11-15T14:41:00;13.70;99.90
7566;DHT22;3824;48.010;7.832;2022-11-15T14:43:26;13.60;99.90
7566;DHT22;3824;48.010;7.832;2022-11-15T14:45:53;13.50;99.90
7566;DHT22;3824;48.010;7.832;2022-11-15T14:48:20;13.60;99.90
7566;DHT22;3824;48.010;7.832;2022-11-15T14:50:48;13.50;99.90
7566;DHT22;3824;48.010;7.832;2022-11-15T14:53:16;13.50;99.90
7566;DHT22;3824;48.010;7.832;2022-11-15T14:55:45;13.50;99.90
7566;DHT22;3824;48.010;7.832;2022-11-15T14:58:12;13.50;99.90
7566;DHT22;3824;48.010;7.832;2022-11-15T15:00:40;13.50;99.90
7566;DHT22;3824;48.010;7.832;2022-11-15T15:03:08;13.60;99.90
7566;DHT22;3824;48.010;7.832;2022-11-15T15:05:36;13.60;99.90
7566;DHT22;3824;48.010;7.832;2022-11-15T15:08:03;13.60;99.90
7566;DHT22;3824;48.010;7.832;2022-11-15T15:10:32;13.60;99.90
7566;DHT22;3824;48.010;7.832;2022-11-15T15:13:01;13.60;99.90
7566;DHT22;3824;48.010;7.832;2022-11-15T15:15:36;13.60;99.90
7566;DHT22;3824;48.010;7.832;2022-11-15T15:18:04;13.70;99.90
7566;DHT22;3824;48.010;7.832;2022-11-15T15:20:34;13.50;99.90
7566;DHT22;3824;48.010;7.832;2022-11-15T15:23:01;13.50;99.90
7566;DHT22;3824;48.010;7.832;2022-11-15T15:25:30;13.40;99.90
7566;DHT22;3824;48.010;7.832;2022-11-15T15:27:58;13.30;99.90
7566;DHT22;3824;48.010;7.832;2022-11-15T15:30:28;13.30;99.90
7566;DHT22;3824;48.010;7.832;2022-11-15T15:32:56;13.20;99.90
7566;DHT22;3824;48.010;7.832;2022-11-15T15:35:22;13.10;99.90
7566;DHT22;3824;48.010;7.832;2022-11-15T15:37:50;13.00;99.90
7566;DHT22;3824;48.010;7.832;2022-11-15T15:40:19;12.90;99.90
7566;DHT22;3824;48.010;7.832;2022-11-15T15:42:46;12.80;99.90
7566;DHT22;3824;48.010;7.832;2022-11-15T15:45:14;12.80;99.90
7566;DHT22;3824;48.010;7.832;2022-11-15T15:47:43;12.70;99.90
7566;DHT22;3824;48.010;7.832;2022-11-15T15:50:20;12.70;99.90
7566;DHT22;3824;48.010;7.832;2022-11-15T15:52:47;12.60;99.90
7566;DHT22;3824;48.010;7.832;2022-11-15T15:55:14;12.60;99.90
7566;DHT22;3824;48.010;7.832;2022-11-15T15:57:41;12.50;99.90
7566;DHT22;3824;48.010;7.832;2022-11-15T16:00:09;12.50;99.90
7566;DHT22;3824;48.010;7.832;2022-11-15T16:02:36;12.40;99.90
7566;DHT22;3824;48.010;7.832;2022-11-15T16:05:06;12.40;99.90
7566;DHT22;3824;48.010;7.832;2022-11-15T16:07:33;12.40;99.90
7566;DHT22;3824;48.010;7.832;2022-11-15T16:09:59;12.30;99.90
7566;DHT22;3824;48.010;7.832;2022-11-15T16:12:26;12.20;99.90
7566;DHT22;3824;48.010;7.832;2022-11-15T16:14:53;12.20;99.90
7566;DHT22;3824;48.010;7.832;2022-11-15T16:17:22;12.20;99.90
7566;DHT22;3824;48.010;7.832;2022-11-15T16:19:49;12.10;99.90
7566;DHT22;3824;48.010;7.832;2022-11-15T16:22:17;12.20;99.90
7566;DHT22;3824;48.010;7.832;2022-11-15T16:24:44;12.10;99.90
7566;DHT22;3824;48.010;7.832;2022-11-15T16:27:14;12.00;99.90
7566;DHT22;3824;48.010;7.832;2022-11-15T16:29:41;12.00;99.90
7566;DHT22;3824;48.010;7.832;2022-11-15T16:32:07;12.00;99.90
7566;DHT22;3824;48.010;7.832;2022-11-15T16:34:37;12.00;99.90
7566;DHT22;3824;48.010;7.832;2022-11-15T16:37:05;12.00;99.90
7566;DHT22;3824;48.010;7.832;2022-11-15T16:39:34;12.10;99.90
7566;DHT22;3824;48.010;7.832;2022-11-15T16:42:01;11.90;99.90